Time;durP1;ratioP1;P1;durP2;ratioP2;P2;SDS_P1;SDS_P2;PMS_P1;PMS_P2;Temp;Humidity;BMP_temperature;BMP_pressure;BME280_temperature;BME280_humidity;BME280_pressure;Samples;Min_cycle;Max_cycle;Signal;HPM_P1;HPM_P2
2024/02/02 00:00:33;;;;;;;15.93;2.40;;;;;;;4.43;100.00;101319.59;5189469;55;1138855;-80
2024/02/02 00:05:40;;;;;;;19.52;3.85;;;;;;;4.46;100.00;101310.31;5189938;55;1138619;-80
2024/02/02 00:10:45;;;;;;;10.13;2.83;;;;;;;4.46;100.00;101320.78;5209697;55;1138777;-80
2024/02/02 00:15:52;;;;;;;14.03;2.70;;;;;;;4.45;100.00;101320.39;5187901;55;1138736;-80
2024/02/02 00:20:58;;;;;;;23.13;3.80;;;;;;;4.45;100.00;101321.70;5195778;55;1138374;-80
2024/02/02 00:26:04;;;;;;;17.50;3.17;;;;;;;4.43;100.00;101334.00;5243920;54;1138462;-80
2024/02/02 00:31:09;;;;;;;13.70;3.03;;;;;;;4.44;100.00;101336.16;5266209;54;1138995;-80
2024/02/02 00:36:16;;;;;;;15.87;3.47;;;;;;;4.39;100.00;101336.36;5088548;54;1138606;-80
2024/02/02 00:41:22;;;;;;;16.87;3.30;;;;;;;4.40;100.00;101337.22;5088807;56;1138931;-80
2024/02/02 00:46:28;;;;;;;21.12;3.55;;;;;;;4.38;100.00;101329.88;4994111;56;1138705;-80
2024/02/02 00:51:34;;;;;;;21.30;2.63;;;;;;;4.37;100.00;101335.56;4982397;56;1138826;-80
2024/02/02 00:56:39;;;;;;;19.13;4.00;;;;;;;4.37;100.00;101331.64;4982644;56;1138857;-80
2024/02/02 01:01:45;;;;;;;18.40;3.00;;;;;;;4.37;100.00;101351.28;5001926;56;1138698;-80
2024/02/02 01:06:51;;;;;;;16.80;3.33;;;;;;;4.35;100.00;101346.55;4982068;56;1138786;-80
2024/02/02 01:11:58;;;;;;;25.43;4.13;;;;;;;4.35;100.00;101350.48;4981783;56;1138742;-80
2024/02/02 01:17:04;;;;;;;10.83;2.40;;;;;;;4.35;100.00;101366.19;5001480;56;1138479;-80
2024/02/02 01:22:10;;;;;;;21.23;2.97;;;;;;;4.34;100.00;101374.96;4901247;57;1138878;-80
2024/02/02 01:27:15;;;;;;;18.93;4.10;;;;;;;4.34;100.00;101381.96;5047243;55;1139091;-80
2024/02/02 01:32:21;;;;;;;20.83;5.70;;;;;;;4.35;100.00;101388.91;5170523;56;1138959;-80
2024/02/02 01:37:26;;;;;;;27.53;3.57;;;;;;;4.35;100.00;101388.91;5105757;54;1138901;-80
2024/02/02 01:42:32;;;;;;;16.53;5.30;;;;;;;4.31;100.00;101388.16;5176106;55;1138690;-80
2024/02/02 01:47:37;;;;;;;17.25;3.87;;;;;;;4.31;100.00;101386.86;5136712;55;1138647;-80
2024/02/02 01:52:43;;;;;;;15.20;3.23;;;;;;;4.29;100.00;101387.81;5156409;55;1138821;-80
2024/02/02 01:57:49;;;;;;;21.35;3.58;;;;;;;4.26;100.00;101380.11;5136259;55;1138994;-80
2024/02/02 02:02:54;;;;;;;15.70;4.10;;;;;;;4.22;100.00;101384.59;5136158;55;1138712;-80
2024/02/02 02:08:00;;;;;;;15.53;2.70;;;;;;;4.20;100.00;101391.65;5156672;55;1138594;-80
2024/02/02 02:13:06;;;;;;;15.93;2.70;;;;;;;4.15;100.00;101390.95;5186544;55;1138680;-80
2024/02/02 02:18:12;;;;;;;14.50;2.03;;;;;;;4.13;100.00;101393.63;5224325;55;1138882;-80
2024/02/02 02:23:18;;;;;;;13.30;2.67;;;;;;;4.10;100.00;101396.84;5243720;55;1139051;-80
2024/02/02 02:28:24;;;;;;;12.24;2.82;;;;;;;4.08;100.00;101395.58;5314001;54;1138836;-80
2024/02/02 02:33:30;;;;;;;16.90;3.43;;;;;;;4.04;100.00;101388.74;5180712;55;1138843;-80
2024/02/02 02:38:36;;;;;;;21.68;4.12;;;;;;;4.05;100.00;101403.99;5278534;54;1138626;-79
2024/02/02 02:43:42;;;;;;;19.62;3.47;;;;;;;4.04;100.00;101411.45;5232427;55;1138665;-79
2024/02/02 02:48:47;;;;;;;16.07;3.37;;;;;;;4.00;100.00;101418.55;5180055;55;1138526;-79
2024/02/02 02:53:53;;;;;;;11.00;2.60;;;;;;;3.95;100.00;101429.66;5154468;54;1138524;-79
2024/02/02 02:58:58;;;;;;;18.60;3.60;;;;;;;3.92;100.00;101424.52;5245666;54;1138524;-79
2024/02/02 03:04:04;;;;;;;17.27;3.93;;;;;;;3.88;100.00;101431.62;5225687;54;1138597;-79
2024/02/02 03:09:11;;;;;;;17.07;4.83;;;;;;;3.84;100.00;101432.63;5214296;54;1138566;-79
2024/02/02 03:14:17;;;;;;;20.40;3.33;;;;;;;3.82;100.00;101429.20;5246266;54;1138946;-79
2024/02/02 03:19:22;;;;;;;13.77;2.47;;;;;;;3.75;100.00;101419.88;5212175;55;1138501;-79
2024/02/02 03:24:28;;;;;;;16.53;3.43;;;;;;;3.63;100.00;101417.70;5158483;54;1138803;-79
2024/02/02 03:29:33;;;;;;;16.77;3.60;;;;;;;3.63;100.00;101417.70;5185897;54;1138623;-79
2024/02/02 03:34:39;;;;;;;16.67;2.97;;;;;;;3.59;100.00;101421.77;5246807;54;1138443;-79
2024/02/02 03:39:45;;;;;;;23.73;6.03;;;;;;;3.54;100.00;101433.69;5213241;55;1138984;-79
2024/02/02 03:44:51;;;;;;;22.98;3.37;;;;;;;3.48;100.00;101435.22;5148575;56;1138699;-79
2024/02/02 03:49:56;;;;;;;28.03;3.10;;;;;;;3.48;100.00;101441.31;5170608;55;1138847;-79
2024/02/02 03:55:02;;;;;;;22.77;4.40;;;;;;;3.47;100.00;101447.45;5149655;55;1138457;-80
2024/02/02 04:00:12;;;;;;;20.73;4.27;;;;;;;3.46;100.00;101442.27;5140241;54;1138464;-79
2024/02/02 04:05:17;;;;;;;21.83;3.70;;;;;;;3.44;100.00;101452.77;5179475;54;1138741;-79
2024/02/02 04:10:23;;;;;;;28.77;4.07;;;;;;;3.45;100.00;101460.16;5219705;54;1138788;-81
2024/02/02 04:15:29;;;;;;;34.00;4.60;;;;;;;3.42;100.00;101465.03;5227938;54;1138847;-79
2024/02/02 04:20:34;;;;;;;14.87;3.72;;;;;;;3.40;100.00;101457.69;5111749;56;1138515;-78
2024/02/02 04:25:40;;;;;;;23.75;3.70;;;;;;;3.39;100.00;101456.43;5250743;54;1138884;-79
2024/02/02 04:30:46;;;;;;;21.60;5.30;;;;;;;3.37;100.00;101459.09;5220724;55;1138722;-81
2024/02/02 04:35:51;;;;;;;20.00;3.35;;;;;;;3.38;100.00;101457.33;5215247;55;1138799;-79
2024/02/02 04:40:57;;;;;;;12.03;2.93;;;;;;;3.41;100.00;101462.47;5236361;55;1138365;-79
2024/02/02 04:46:03;;;;;;;20.73;3.33;;;;;;;3.43;100.00;101458.91;5215971;55;1138690;-79
2024/02/02 04:51:08;;;;;;;17.32;3.30;;;;;;;3.46;100.00;101469.72;5235843;55;1138531;-79
2024/02/02 04:56:14;;;;;;;16.77;3.00;;;;;;;3.42;100.00;101478.11;5338866;55;1138842;-79
2024/02/02 05:01:20;;;;;;;16.83;4.73;;;;;;;3.38;100.00;101469.10;5318255;55;1138227;-79
2024/02/02 05:06:26;;;;;;;23.80;4.10;;;;;;;3.33;100.00;101475.81;5318440;55;1138520;-79
2024/02/02 05:11:32;;;;;;;22.97;4.53;;;;;;;3.29;100.00;101476.80;5338044;54;1138288;-79
2024/02/02 05:16:38;;;;;;;22.20;3.00;;;;;;;3.30;100.00;101478.52;5317339;55;1138330;-80
2024/02/02 05:21:44;;;;;;;24.77;3.67;;;;;;;3.30;100.00;101478.52;5216153;56;1138532;-80
2024/02/02 05:26:50;;;;;;;29.73;4.00;;;;;;;3.36;100.00;101486.14;5301236;55;1139095;-80
2024/02/02 05:31:55;;;;;;;20.03;4.07;;;;;;;3.38;100.00;101480.41;5235504;54;1138453;-80
2024/02/02 05:37:01;;;;;;;15.00;3.20;;;;;;;3.38;100.00;101468.65;5407401;54;1138684;-79
2024/02/02 05:42:07;;;;;;;29.00;3.60;;;;;;;3.36;100.00;101460.48;5387504;54;1138648;-81
2024/02/02 05:47:13;;;;;;;13.53;3.80;;;;;;;3.30;100.00;101472.43;5318378;54;1138422;-80
2024/02/02 05:52:18;;;;;;;17.70;3.60;;;;;;;3.22;100.00;101473.11;5319775;55;1138366;-79
2024/02/02 05:57:24;;;;;;;11.73;3.10;;;;;;;3.12;100.00;101469.50;5339662;55;1138453;-79
2024/02/02 06:02:30;;;;;;;22.73;3.50;;;;;;;3.06;100.00;101465.76;5340589;54;1138726;-79
2024/02/02 06:07:35;;;;;;;17.93;4.87;;;;;;;3.00;100.00;101465.97;5340871;54;1138402;-80
2024/02/02 06:12:41;;;;;;;21.95;3.42;;;;;;;2.94;100.00;101460.92;5249931;56;1138529;-79
2024/02/02 06:17:47;;;;;;;50.53;10.40;;;;;;;2.90;100.00;101480.23;5339972;54;1138339;-80
2024/02/02 06:22:52;;;;;;;49.20;7.70;;;;;;;2.84;100.00;101480.41;5340914;54;1140612;-80
2024/02/02 06:27:58;;;;;;;17.57;3.43;;;;;;;2.82;100.00;101496.57;5287246;54;1139151;-80
2024/02/02 06:33:04;;;;;;;21.40;4.07;;;;;;;2.83;100.00;101487.38;5296537;55;1138489;-79
2024/02/02 06:38:10;;;;;;;24.30;3.70;;;;;;;2.87;100.00;101498.61;5337150;54;1138300;-78
2024/02/02 06:43:16;;;;;;;20.70;3.73;;;;;;;2.90;100.00;101499.83;5230279;54;1138470;-79
2024/02/02 06:48:21;;;;;;;22.80;4.10;;;;;;;2.90;100.00;101501.13;5042065;57;1138721;-80
2024/02/02 06:53:33;;;;;;;20.03;3.73;;;;;;;2.93;100.00;101495.79;5211429;55;1138536;-78
2024/02/02 06:58:44;;;;;;;27.40;3.83;;;;;;;2.93;100.00;101502.32;5229388;55;1138387;-78
2024/02/02 07:03:50;;;;;;;22.13;3.98;;;;;;;2.95;100.00;101502.28;5237256;55;1144242;-79
2024/02/02 07:09:00;;;;;;;16.97;3.17;;;;;;;2.98;100.00;101510.03;5237976;55;1138557;-78
2024/02/02 07:14:10;;;;;;;18.67;4.47;;;;;;;3.01;100.00;101512.11;5316015;55;1138616;-78
2024/02/02 07:19:20;;;;;;;29.50;4.40;;;;;;;3.04;100.00;101503.32;5250810;55;1138912;-78
2024/02/02 07:24:25;;;;;;;13.87;3.90;;;;;;;3.06;100.00;101499.73;5232058;55;1138751;-78
2024/02/02 07:29:38;;;;;;;29.70;7.23;;;;;;;3.08;100.00;101495.31;5289538;54;1138932;-78
2024/02/02 07:34:47;;;;;;;17.80;3.30;;;;;;;3.11;100.00;101501.77;5238974;54;1138991;-77
2024/02/02 07:39:53;;;;;;;27.95;5.00;;;;;;;3.16;100.00;101501.63;5208010;55;1138917;-78
2024/02/02 07:44:59;;;;;;;31.53;5.13;;;;;;;3.19;100.00;101496.31;5237966;55;1138617;-78
2024/02/02 07:50:06;;;;;;;30.43;4.97;;;;;;;3.23;100.00;101489.20;5228838;54;1138964;-78
2024/02/02 07:55:11;;;;;;;25.63;5.33;;;;;;;3.27;100.00;101487.76;5250735;54;1138774;-78
2024/02/02 08:00:18;;;;;;;17.57;4.77;;;;;;;3.29;100.00;101483.80;5288032;54;1138747;-78
2024/02/02 08:05:23;;;;;;;18.53;4.80;;;;;;;3.29;100.00;101478.11;5101926;55;1138611;-78
2024/02/02 08:10:29;;;;;;;25.70;4.13;;;;;;;3.31;100.00;101478.92;5163711;54;1138399;-79
2024/02/02 08:15:35;;;;;;;27.27;5.62;;;;;;;3.34;100.00;101484.51;5175939;54;1138737;-79
2024/02/02 08:20:41;;;;;;;18.53;4.73;;;;;;;3.35;100.00;101478.38;5237547;54;1138796;-78
2024/02/02 08:25:46;;;;;;;15.88;4.20;;;;;;;3.38;100.00;101481.72;5203276;54;1142982;-78
2024/02/02 08:30:52;;;;;;;21.20;5.12;;;;;;;3.38;100.00;101479.56;5129959;55;1138622;-78
2024/02/02 08:35:58;;;;;;;31.30;4.72;;;;;;;3.42;100.00;101482.03;5311184;54;1138598;-77
2024/02/02 08:41:04;;;;;;;18.10;4.35;;;;;;;3.48;100.00;101491.00;5283636;54;1138890;-78
2024/02/02 08:46:12;;;;;;;33.95;6.67;;;;;;;3.53;100.00;101479.91;5216322;54;1138554;-78
2024/02/02 08:51:37;;;;;;;26.50;5.47;;;;;;;3.60;100.00;101481.03;5236613;54;1138495;-78
2024/02/02 08:56:49;;;;;;;24.47;3.95;;;;;;;3.67;100.00;101474.22;5219823;55;1138582;-78
2024/02/02 09:01:55;;;;;;;31.82;6.35;;;;;;;3.68;100.00;101472.00;5214436;55;1138805;-78
2024/02/02 09:07:00;;;;;;;28.55;4.47;;;;;;;3.71;100.00;101472.36;5230668;55;1138631;-78
2024/02/02 09:12:07;;;;;;;22.60;4.77;;;;;;;3.74;100.00;101472.26;5215064;55;1138494;-78
2024/02/02 09:17:14;;;;;;;30.47;4.67;;;;;;;3.74;100.00;101467.88;5215333;55;1139017;-78
2024/02/02 09:22:20;;;;;;;27.40;4.67;;;;;;;3.81;100.00;101465.92;5236148;55;1138451;-78
2024/02/02 09:27:36;;;;;;;20.90;5.53;;;;;;;3.81;100.00;101456.31;5259924;54;1138927;-78
2024/02/02 09:32:41;;;;;;;66.17;15.72;;;;;;;3.84;100.00;101450.95;5276518;54;1138713;-78
2024/02/02 09:37:50;;;;;;;76.82;14.58;;;;;;;3.88;100.00;101449.09;5182857;55;1140707;-79
2024/02/02 09:43:16;;;;;;;28.62;4.92;;;;;;;3.95;100.00;101445.36;5224156;55;1140693;-78
2024/02/02 09:48:44;;;;;;;40.10;6.93;;;;;;;4.01;100.00;101436.41;5213927;55;1138559;-79
2024/02/02 09:53:54;;;;;;;30.87;6.33;;;;;;;4.07;100.00;101427.90;5214680;55;1138588;-79
2024/02/02 09:59:07;;;;;;;38.83;8.73;;;;;;;4.18;100.00;101409.17;5114369;55;1138731;-79
2024/02/02 10:04:32;;;;;;;19.00;5.22;;;;;;;4.24;100.00;101401.11;5142305;56;1138665;-78
2024/02/02 10:09:54;;;;;;;31.77;6.60;;;;;;;4.29;100.00;101406.14;5217591;55;1138827;-78
2024/02/02 10:15:22;;;;;;;27.17;4.92;;;;;;;4.32;100.00;101406.04;5215107;55;1138793;-78
2024/02/02 10:20:47;;;;;;;36.73;11.60;;;;;;;4.33;100.00;101405.98;5235821;55;1138672;-78
2024/02/02 10:26:42;;;;;;;13.88;4.35;;;;;;;4.40;100.00;101400.93;5193829;55;1150323;-78
2024/02/02 10:32:22;;;;;;;64.93;14.90;;;;;;;4.46;100.00;101404.61;5129287;55;1141071;-78
2024/02/02 10:37:38;;;;;;;28.50;7.10;;;;;;;4.49;100.00;101405.80;5215820;55;1140769;-78
2024/02/02 10:42:55;;;;;;;35.98;9.50;;;;;;;4.53;100.00;101399.54;5180659;55;1138666;-78
2024/02/02 10:48:32;;;;;;;21.75;5.78;;;;;;;4.52;100.00;101400.91;4957192;57;1139074;-81
2024/02/02 10:53:51;;;;;;;21.73;4.20;;;;;;;4.51;100.00;101386.10;5105684;55;1138583;-79
2024/02/02 10:59:33;;;;;;;22.48;4.95;;;;;;;4.54;100.00;101370.27;4999541;57;1138732;-78
2024/02/02 11:04:58;;;;;;;27.27;6.50;;;;;;;4.54;100.00;101358.03;5012316;57;1138899;-79
2024/02/02 11:10:07;;;;;;;20.53;4.23;;;;;;;4.57;100.00;101351.36;5031765;57;1138851;-79
2024/02/02 11:15:26;;;;;;;22.20;5.10;;;;;;;4.58;100.00;101339.94;5110563;55;1138509;-81
2024/02/02 11:20:50;;;;;;;18.75;4.70;;;;;;;4.62;100.00;101330.20;5092067;56;1138711;-81
2024/02/02 11:26:16;;;;;;;17.80;4.63;;;;;;;4.66;100.00;101325.70;5251609;53;1138978;-81
2024/02/02 11:31:41;;;;;;;25.37;4.80;;;;;;;4.67;100.00;101321.70;5297725;53;1138621;-81
2024/02/02 11:37:26;;;;;;;17.83;4.07;;;;;;;4.72;100.00;101309.74;5294314;55;1138331;-81
2024/02/02 11:42:37;;;;;;;14.00;4.23;;;;;;;4.72;100.00;101309.74;5264897;55;1138757;-81
2024/02/02 11:47:48;;;;;;;15.20;3.60;;;;;;;4.73;100.00;101296.58;5230836;54;1138914;-82
2024/02/02 11:53:07;;;;;;;26.00;3.70;;;;;;;4.72;100.00;101269.98;5274507;55;1138610;-81
2024/02/02 11:58:15;;;;;;;18.00;6.53;;;;;;;4.73;100.00;101265.14;5211430;54;1138608;-81
2024/02/02 12:03:41;;;;;;;27.93;7.25;;;;;;;4.75;100.00;101255.88;5233234;55;1138391;-82
2024/02/02 12:09:11;;;;;;;17.70;4.67;;;;;;;4.79;100.00;101261.39;5147273;55;1138553;-81
2024/02/02 12:14:36;;;;;;;19.35;4.65;;;;;;;4.79;100.00;101251.76;5138332;55;1138693;-78
2024/02/02 12:19:41;;;;;;;18.60;4.93;;;;;;;4.81;100.00;101236.83;5167948;54;1138653;-77
2024/02/02 12:24:47;;;;;;;19.02;4.78;;;;;;;4.88;100.00;101220.40;5273314;54;1138711;-76
2024/02/02 12:29:53;;;;;;;19.63;4.83;;;;;;;4.92;100.00;101203.14;5294856;54;1138687;-77
2024/02/02 12:34:59;;;;;;;17.80;3.87;;;;;;;4.94;100.00;101200.45;5187050;54;1138929;-78
2024/02/02 12:40:07;;;;;;;22.22;5.33;;;;;;;4.96;100.00;101193.38;5226047;54;1138714;-75
2024/02/02 12:45:17;;;;;;;14.57;3.97;;;;;;;4.98;100.00;101185.45;5226846;54;1138909;-77
2024/02/02 12:50:25;;;;;;;8.63;3.08;;;;;;;4.95;100.00;101183.81;5143351;54;1138935;-76
2024/02/02 12:55:30;;;;;;;21.15;4.28;;;;;;;4.90;100.00;101168.28;5114421;55;1136536;-71
2024/02/02 13:00:36;;;;;;;21.63;5.00;;;;;;;4.87;100.00;101156.64;5232067;54;1138853;-72
2024/02/02 13:05:42;;;;;;;17.97;4.93;;;;;;;4.85;100.00;101141.44;5171698;55;1138955;-72
2024/02/02 13:10:49;;;;;;;18.77;4.67;;;;;;;4.83;100.00;101127.55;5265893;54;1138589;-75
2024/02/02 13:15:55;;;;;;;72.13;19.87;;;;;;;4.84;100.00;101116.15;5268104;54;1138441;-74
2024/02/02 13:21:01;;;;;;;22.47;6.90;;;;;;;4.83;100.00;101100.03;5227626;54;1140556;-80
2024/02/02 13:26:07;;;;;;;13.73;5.67;;;;;;;4.81;100.00;101086.14;5244747;54;1138350;-85
2024/02/02 13:31:19;;;;;;;19.30;4.60;;;;;;;4.75;100.00;101082.47;5250317;54;1138304;-77
2024/02/02 13:36:29;;;;;;;13.13;4.63;;;;;;;4.70;100.00;101085.78;5294355;54;1138599;-76
2024/02/02 13:41:39;;;;;;;16.67;5.15;;;;;;;4.69;100.00;101098.48;5218503;54;1138572;-84
2024/02/02 13:46:47;;;;;;;16.85;5.28;;;;;;;4.63;100.00;101089.57;5251386;54;1138733;-79
2024/02/02 13:51:53;;;;;;;20.37;5.93;;;;;;;4.58;100.00;101083.70;5219660;54;1138847;-77
2024/02/02 13:56:58;;;;;;;19.43;5.47;;;;;;;4.54;100.00;101080.36;5220271;54;1138690;-82
2024/02/02 14:02:14;;;;;;;14.33;5.33;;;;;;;4.47;100.00;101063.20;5192230;55;1138528;-75
2024/02/02 14:07:19;;;;;;;24.90;7.17;;;;;;;4.42;100.00;101052.55;5170134;55;1138875;-78
2024/02/02 14:12:25;;;;;;;13.63;5.67;;;;;;;4.36;100.00;101049.73;5208757;55;1138693;-76
2024/02/02 14:17:31;;;;;;;19.92;5.30;;;;;;;4.31;100.00;101041.67;5221977;55;1138411;-77
2024/02/02 14:22:37;;;;;;;22.27;7.57;;;;;;;4.26;100.00;101032.73;5198978;55;1138564;-76
2024/02/02 14:27:42;;;;;;;25.00;10.27;;;;;;;4.26;100.00;101026.64;5200229;54;1138593;-76
2024/02/02 14:32:48;;;;;;;14.20;5.87;;;;;;;4.26;100.00;101017.47;5221274;54;1140686;-74
2024/02/02 14:37:54;;;;;;;71.10;21.73;;;;;;;4.23;100.00;101010.59;5203055;55;1138698;-76
2024/02/02 14:43:00;;;;;;;33.77;11.63;;;;;;;4.21;100.00;100999.34;5183310;55;1140852;-77
2024/02/02 14:48:06;;;;;;;27.80;10.83;;;;;;;4.20;100.00;100998.95;5230493;54;1140750;-75
2024/02/02 14:53:12;;;;;;;43.87;19.47;;;;;;;4.18;100.00;100983.76;5211615;55;1140731;-75
2024/02/02 14:58:18;;;;;;;48.87;24.47;;;;;;;4.19;100.00;100971.06;5193003;55;1140704;-80
2024/02/02 15:03:23;;;;;;;18.60;8.30;;;;;;;4.16;100.00;100960.27;5289961;54;1141017;-75
2024/02/02 15:08:29;;;;;;;55.17;27.63;;;;;;;4.13;100.00;100963.01;5197071;55;1138574;-74
2024/02/02 15:13:36;;;;;;;27.70;11.08;;;;;;;4.14;100.00;100949.00;5126753;56;1141002;-77
2024/02/02 15:18:46;;;;;;;26.47;11.03;;;;;;;4.15;100.00;100938.08;5144204;55;1140559;-78
2024/02/02 15:23:50;;;;;;;31.10;11.27;;;;;;;4.14;100.00;100941.16;5209910;54;1140910;-79
2024/02/02 15:28:55;;;;;;;64.17;19.90;;;;;;;4.12;100.00;100943.02;5120238;55;1140948;-79
2024/02/02 15:34:01;;;;;;;51.37;19.87;;;;;;;4.09;100.00;100925.28;5171690;55;1140721;-76
2024/02/02 15:39:10;;;;;;;54.47;17.07;;;;;;;4.08;100.00;100923.58;5169740;55;1140849;-76
2024/02/02 15:44:13;;;;;;;131.13;30.47;;;;;;;4.05;100.00;100911.47;5098476;55;1140816;-79
2024/02/02 15:49:31;;;;;;;421.93;83.80;;;;;;;4.05;100.00;100908.01;5106561;55;1142856;-74
2024/02/02 15:54:37;;;;;;;108.97;21.47;;;;;;;4.06;100.00;100896.62;5138361;55;1143090;-74
2024/02/02 15:59:43;;;;;;;85.67;30.00;;;;;;;4.05;100.00;100887.92;5213683;55;1142761;-73
2024/02/02 16:04:48;;;;;;;227.50;108.30;;;;;;;4.04;100.00;100884.91;5216224;55;1140777;-79
2024/02/02 16:09:56;;;;;;;58.80;20.30;;;;;;;4.06;100.00;100876.99;5182787;55;1144871;-80
2024/02/02 16:15:01;;;;;;;48.77;21.53;;;;;;;4.05;100.00;100868.29;5101370;56;1140946;-79
2024/02/02 16:20:11;;;;;;;54.50;15.60;;;;;;;4.02;100.00;100857.10;5147920;55;1140777;-80
2024/02/02 16:25:22;;;;;;;395.90;88.90;;;;;;;4.00;100.00;100849.77;5119837;55;1140918;-79
2024/02/02 16:30:23;;;;;;;55.43;19.17;;;;;;;3.98;100.00;100834.59;5098549;55;1142940;-78
2024/02/02 16:35:30;;;;;;;53.58;17.60;;;;;;;3.97;100.00;100810.23;5131429;55;1140861;-79
2024/02/02 16:40:35;;;;;;;51.43;17.00;;;;;;;3.97;100.00;100809.38;5134651;55;1140919;-79
2024/02/02 16:45:42;;;;;;;45.95;15.93;;;;;;;4.00;100.00;100805.29;5063478;56;1140920;-79
2024/02/02 16:50:47;;;;;;;35.63;15.43;;;;;;;4.01;100.00;100788.67;5134768;55;1140882;-79
2024/02/02 16:55:53;;;;;;;52.17;16.90;;;;;;;4.03;100.00;100773.75;5229892;55;1140911;-78
2024/02/02 17:00:59;;;;;;;33.13;15.90;;;;;;;4.03;100.00;100756.28;5222937;55;1140658;-79
2024/02/02 17:06:05;;;;;;;38.87;14.57;;;;;;;4.02;100.00;100741.50;5243336;54;1140592;-78
2024/02/02 17:11:13;;;;;;;40.80;15.93;;;;;;;4.04;100.00;100723.95;5172838;55;1140770;-77
2024/02/02 17:16:22;;;;;;;28.70;12.97;;;;;;;4.06;100.00;100733.05;5136377;54;1140790;-78
2024/02/02 17:21:28;;;;;;;31.07;11.93;;;;;;;4.07;100.00;100725.58;5181643;55;1140726;-78
2024/02/02 17:26:33;;;;;;;34.93;15.77;;;;;;;4.10;100.00;100708.44;5209524;54;1140843;-78
2024/02/02 17:31:39;;;;;;;21.05;10.35;;;;;;;4.12;100.00;100719.22;5197457;55;1141061;-78
2024/02/02 17:36:45;;;;;;;40.87;13.57;;;;;;;4.14;100.00;100723.89;5191482;54;1140744;-78
2024/02/02 17:41:51;;;;;;;26.10;9.00;;;;;;;4.16;100.00;100702.42;5185541;55;1140831;-79
2024/02/02 17:46:56;;;;;;;20.70;7.73;;;;;;;4.21;100.00;100689.13;5204818;55;1138849;-78
2024/02/02 17:52:02;;;;;;;23.33;7.23;;;;;;;4.19;100.00;100690.50;5201641;55;1138404;-78
2024/02/02 17:57:07;;;;;;;25.77;9.63;;;;;;;4.18;100.00;100678.80;5212734;55;1138812;-78
2024/02/02 18:02:13;;;;;;;13.20;6.13;;;;;;;4.14;100.00;100676.78;5202521;55;1138636;-80
2024/02/02 18:07:19;;;;;;;22.57;8.00;;;;;;;4.15;100.00;100669.78;5185398;55;1138450;-78
2024/02/02 18:12:25;;;;;;;16.60;6.93;;;;;;;4.14;100.00;100670.23;5189223;54;1233954;-78
2024/02/02 18:17:31;;;;;;;24.93;8.17;;;;;;;4.16;100.00;100684.10;5163080;54;1138821;-79
2024/02/02 18:22:37;;;;;;;22.82;6.78;;;;;;;4.21;100.00;100681.27;5145870;54;1138647;-80
2024/02/02 18:27:43;;;;;;;19.67;6.80;;;;;;;4.26;100.00;100672.74;5164698;54;1138621;-78
2024/02/02 18:32:49;;;;;;;36.13;10.37;;;;;;;4.31;100.00;100673.34;5169618;55;1139020;-79
2024/02/02 18:37:54;;;;;;;19.23;7.27;;;;;;;4.41;100.00;100648.42;5189591;54;1140981;-78
2024/02/02 18:43:00;;;;;;;22.40;6.97;;;;;;;4.41;100.00;100648.42;5238164;54;1138711;-78
2024/02/02 18:48:06;;;;;;;26.23;7.30;;;;;;;4.47;100.00;100627.14;5233434;54;1138851;-79
2024/02/02 18:53:11;;;;;;;22.33;8.13;;;;;;;4.51;100.00;100622.60;5221144;54;1138667;-78
2024/02/02 18:58:17;;;;;;;24.57;7.90;;;;;;;4.55;100.00;100628.92;5183397;54;1138933;-78
2024/02/02 19:03:22;;;;;;;19.53;5.80;;;;;;;4.60;100.00;100629.52;5213271;54;1138782;-78
2024/02/02 19:08:28;;;;;;;19.27;6.00;;;;;;;4.64;100.00;100622.35;5218232;54;1138697;-79
2024/02/02 19:13:34;;;;;;;20.85;6.05;;;;;;;4.65;100.00;100599.16;5168222;54;1138841;-79
2024/02/02 19:18:39;;;;;;;13.32;5.60;;;;;;;4.66;100.00;100595.63;5250658;54;1138720;-79
2024/02/02 19:23:45;;;;;;;18.67;8.37;;;;;;;4.68;100.00;100589.00;5204326;54;1138988;-78
2024/02/02 19:28:52;;;;;;;22.13;7.67;;;;;;;4.69;100.00;100587.61;5125174;54;1138466;-79
2024/02/02 19:33:58;;;;;;;24.87;7.20;;;;;;;4.72;100.00;100564.34;5151413;54;1138486;-78
2024/02/02 19:39:03;;;;;;;13.47;6.87;;;;;;;4.77;100.00;100568.85;5158115;54;1138231;-78
2024/02/02 19:44:09;;;;;;;13.50;6.00;;;;;;;4.82;100.00;100569.46;5098792;55;1138668;-79
2024/02/02 19:49:14;;;;;;;23.30;7.57;;;;;;;4.89;100.00;100547.23;5120719;54;1139069;-78
2024/02/02 19:54:20;;;;;;;18.87;6.53;;;;;;;4.94;100.00;100546.53;5146877;55;1138822;-78
2024/02/02 19:59:26;;;;;;;22.48;7.28;;;;;;;4.99;100.00;100553.69;5110760;55;1138932;-79
2024/02/02 20:04:32;;;;;;;24.73;8.30;;;;;;;5.05;100.00;100559.05;5147503;54;1138814;-78
2024/02/02 20:09:38;;;;;;;20.88;7.10;;;;;;;5.07;100.00;100534.91;5089521;54;1138805;-78
2024/02/02 20:14:43;;;;;;;24.90;8.05;;;;;;;5.08;100.00;100538.77;5141176;54;1138596;-78
2024/02/02 20:19:49;;;;;;;24.53;7.60;;;;;;;5.08;100.00;100525.66;5102666;54;1138664;-78
2024/02/02 20:24:55;;;;;;;15.83;7.27;;;;;;;5.05;100.00;100499.61;5116912;55;1138863;-78
2024/02/02 20:30:01;;;;;;;20.23;9.43;;;;;;;5.02;100.00;100495.02;5137060;55;1138693;-78
2024/02/02 20:35:07;;;;;;;19.67;8.33;;;;;;;4.97;100.00;100483.47;5115807;56;1138333;-78
2024/02/02 20:40:13;;;;;;;26.87;9.20;;;;;;;4.96;100.00;100485.70;5124133;55;1138940;-75
2024/02/02 20:45:21;;;;;;;30.83;8.67;;;;;;;4.94;100.00;100478.39;5223562;55;1138554;-74
2024/02/02 20:50:27;;;;;;;22.50;8.07;;;;;;;4.94;100.00;100475.77;5203409;55;1138654;-75
2024/02/02 20:55:32;;;;;;;24.97;8.43;;;;;;;4.92;100.00;100469.77;5203531;55;1138841;-75
2024/02/02 21:00:43;;;;;;;22.90;10.45;;;;;;;4.91;100.00;100451.88;5203506;55;1138715;-75
2024/02/02 21:05:45;;;;;;;21.33;7.65;;;;;;;4.94;100.00;100459.58;5221596;55;1140725;-75
2024/02/02 21:10:51;;;;;;;20.43;8.23;;;;;;;4.91;100.00;100454.50;5203048;55;1138609;-74
2024/02/02 21:15:57;;;;;;;17.70;8.00;;;;;;;4.99;100.00;100449.31;5223259;54;1138598;-74
2024/02/02 21:21:03;;;;;;;15.90;8.57;;;;;;;5.02;100.00;100455.24;5252704;54;1138740;-75
2024/02/02 21:26:08;;;;;;;22.87;8.37;;;;;;;5.04;100.00;100433.69;5227367;54;1138469;-75
2024/02/02 21:31:14;;;;;;;18.03;9.20;;;;;;;5.08;100.00;100428.66;5231501;54;1138501;-74
2024/02/02 21:36:20;;;;;;;17.00;8.87;;;;;;;5.15;100.00;100419.54;5165178;55;1138551;-75
2024/02/02 21:41:26;;;;;;;17.90;8.77;;;;;;;5.20;100.00;100445.01;5174262;54;1138689;-75
2024/02/02 21:46:31;;;;;;;21.97;9.83;;;;;;;5.21;100.00;100416.55;5219335;54;1138689;-75
2024/02/02 21:51:37;;;;;;;15.43;9.13;;;;;;;5.22;100.00;100414.31;5315214;54;1138910;-75
2024/02/02 21:56:43;;;;;;;17.55;9.38;;;;;;;5.27;100.00;100417.98;5314996;54;1138786;-74
2024/02/02 22:01:49;;;;;;;15.13;9.13;;;;;;;5.33;100.00;100414.18;5294159;54;1138705;-75
2024/02/02 22:06:54;;;;;;;23.30;10.33;;;;;;;5.40;100.00;100415.03;5277358;54;1138502;-75
2024/02/02 22:12:00;;;;;;;16.03;9.63;;;;;;;5.46;100.00;100404.20;5313652;54;1140793;-74
2024/02/02 22:17:06;;;;;;;18.73;11.03;;;;;;;5.48;100.00;100382.66;5281304;54;1138457;-75
2024/02/02 22:22:11;;;;;;;16.50;11.90;;;;;;;5.54;100.00;100386.22;5268594;54;1140769;-74
2024/02/02 22:27:17;;;;;;;21.83;11.17;;;;;;;5.62;100.00;100387.09;5255885;54;1140761;-75
2024/02/02 22:32:23;;;;;;;16.53;12.30;;;;;;;5.69;100.00;100381.84;5252744;54;1140648;-74
2024/02/02 22:37:29;;;;;;;18.70;11.87;;;;;;;5.72;100.00;100377.73;5326526;54;1140504;-74
2024/02/02 22:42:34;;;;;;;16.60;11.07;;;;;;;5.78;100.00;100377.38;5321112;54;1141026;-74
2024/02/02 22:47:41;;;;;;;15.20;11.30;;;;;;;5.83;100.00;100389.73;5280919;54;1140802;-74
2024/02/02 22:52:47;;;;;;;17.37;11.50;;;;;;;5.87;100.00;100385.15;5190971;55;1140792;-75
2024/02/02 22:57:52;;;;;;;20.80;12.57;;;;;;;5.93;100.00;100381.73;5210853;55;1140432;-75